Time;durP1;ratioP1;P1;durP2;ratioP2;P2;SDS_P1;SDS_P2;PMS_P1;PMS_P2;Temp;Humidity;BMP_temperature;BMP_pressure;BME280_temperature;BME280_humidity;BME280_pressure;Samples;Min_cycle;Max_cycle;Signal;HPM_P1;HPM_P2
2023/01/24 00:01:38;;;;;;;43.17;17.50;;;;;;;-141.97;100.00;47938.09;5044422;28;20178;-83
2023/01/24 00:04:04;;;;;;;49.10;16.73;;;;;;;-141.97;100.00;47913.13;5054339;28;20408;-83
2023/01/24 00:06:29;;;;;;;42.47;16.03;;;;;;;-141.97;100.00;47911.19;5053573;28;20162;-83
2023/01/24 00:08:54;;;;;;;44.83;17.73;;;;;;;-141.97;100.00;47847.75;5053550;28;20264;-83
2023/01/24 00:11:20;;;;;;;53.73;19.00;;;;;;;-141.97;100.00;47928.50;5057712;28;20593;-83
2023/01/24 00:13:45;;;;;;;44.90;18.03;;;;;;;-141.97;100.00;47930.41;5075895;28;20166;-83
2023/01/24 00:16:19;;;;;;;39.53;15.70;;;;;;;-141.97;100.00;47882.38;5077397;28;20199;-83
2023/01/24 00:18:45;;;;;;;45.00;16.47;;;;;;;-141.97;100.00;47895.81;5073553;28;20192;-83
2023/01/24 00:21:14;;;;;;;44.43;16.70;;;;;;;-141.97;100.00;47930.41;5055134;28;20400;-82
2023/01/24 00:23:41;;;;;;;44.10;17.30;;;;;;;-141.97;100.00;47897.75;5057131;28;20404;-83
2023/01/24 00:26:07;;;;;;;40.27;15.53;;;;;;;-141.97;100.00;47916.97;5053977;28;20408;-82
2023/01/24 00:28:33;;;;;;;43.97;17.70;;;;;;;-141.97;100.00;47857.38;5053224;28;20408;-82
2023/01/24 00:30:58;;;;;;;49.17;16.77;;;;;;;-141.97;100.00;47941.94;5052816;28;20395;-83
2023/01/24 00:33:24;;;;;;;45.93;16.83;;;;;;;-141.97;100.00;47907.34;5052768;28;20771;-83
2023/01/24 00:35:53;;;;;;;42.03;16.53;;;;;;;-141.97;100.00;47838.16;5052789;28;20192;-83
2023/01/24 00:38:20;;;;;;;42.77;17.23;;;;;;;-141.97;100.00;47793.94;5051119;28;20523;-83
2023/01/24 00:40:46;;;;;;;45.53;16.57;;;;;;;-141.97;100.00;47940.03;5052973;28;20487;-83
2023/01/24 00:43:11;;;;;;;45.70;18.20;;;;;;;-141.97;100.00;47945.81;5051964;28;20410;-83
2023/01/24 00:45:37;;;;;;;45.03;17.67;;;;;;;-141.97;100.00;47932.34;5052740;28;20153;-83
2023/01/24 00:48:04;;;;;;;41.20;16.07;;;;;;;-141.97;100.00;47888.13;5052950;28;20649;-83
2023/01/24 00:50:29;;;;;;;45.73;17.50;;;;;;;-141.97;100.00;47951.56;5052927;28;20191;-83
2023/01/24 00:52:54;;;;;;;43.10;17.70;;;;;;;-141.97;100.00;47926.56;5052824;28;20404;-82
2023/01/24 00:55:20;;;;;;;47.77;17.60;;;;;;;-141.97;100.00;47924.66;5051524;28;20653;-83
2023/01/24 00:57:45;;;;;;;45.70;16.77;;;;;;;-141.97;100.00;47930.41;5054651;28;20260;-83
2023/01/24 01:00:12;;;;;;;45.20;17.50;;;;;;;-141.97;100.00;47911.19;5060720;28;20232;-83
2023/01/24 01:02:37;;;;;;;53.83;19.77;;;;;;;-141.97;100.00;47926.56;5076934;28;20217;-82
2023/01/24 01:05:03;;;;;;;48.50;18.53;;;;;;;-141.97;100.00;47907.34;5064141;28;20425;-83
2023/01/24 01:07:28;;;;;;;52.30;19.43;;;;;;;-141.97;100.00;47951.56;5052769;28;20165;-83
2023/01/24 01:09:53;;;;;;;43.23;17.53;;;;;;;-141.97;100.00;47890.06;5052187;28;20687;-83
2023/01/24 01:12:19;;;;;;;47.17;17.10;;;;;;;-141.97;100.00;47893.91;5051817;28;20231;-82
2023/01/24 01:14:44;;;;;;;44.57;17.13;;;;;;;-141.97;100.00;47938.09;5051976;28;20189;-83
2023/01/24 01:17:10;;;;;;;50.63;18.23;;;;;;;-141.97;100.00;47957.34;5052069;28;20169;-83
2023/01/24 01:19:35;;;;;;;47.63;17.53;;;;;;;-141.97;100.00;47884.28;5051665;28;20253;-83
2023/01/24 01:22:00;;;;;;;50.67;18.30;;;;;;;-141.97;100.00;47803.56;5051722;28;20552;-83
2023/01/24 01:24:26;;;;;;;43.17;16.90;;;;;;;-141.97;100.00;47890.06;5051758;28;20192;-83
2023/01/24 01:26:51;;;;;;;54.50;19.13;;;;;;;-141.97;100.00;47836.22;5051708;28;20200;-83
2023/01/24 01:29:16;;;;;;;48.10;18.77;;;;;;;-141.97;100.00;47920.81;5051659;28;20580;-83
2023/01/24 01:31:42;;;;;;;51.50;19.47;;;;;;;-141.97;100.00;47943.88;5052216;28;20196;-83
2023/01/24 01:34:09;;;;;;;46.43;17.07;;;;;;;-141.97;100.00;47886.22;5054240;28;20186;-82
2023/01/24 01:36:35;;;;;;;46.63;16.90;;;;;;;-141.97;100.00;47953.50;5055758;28;20222;-83
2023/01/24 01:39:00;;;;;;;44.00;17.93;;;;;;;-141.97;100.00;47926.56;5050144;28;20401;-83
2023/01/24 01:41:26;;;;;;;43.90;18.20;;;;;;;-141.97;100.00;47968.88;5051652;28;20166;-83
2023/01/24 01:46:49;;;;;;;47.37;17.43;;;;;;;-141.97;100.00;47901.59;5051510;28;20256;-83
2023/01/24 01:49:21;;;;;;;48.83;18.17;;;;;;;-141.97;100.00;47953.50;5050990;28;20770;-83
2023/01/24 01:51:50;;;;;;;51.20;17.90;;;;;;;-141.97;100.00;47926.56;5033419;28;20458;-83
2023/01/24 01:54:26;;;;;;;47.80;17.40;;;;;;;-141.97;100.00;47874.69;5051432;28;20458;-83
2023/01/24 01:56:57;;;;;;;51.63;17.40;;;;;;;-141.97;100.00;47930.41;5051061;28;20490;-82
2023/01/24 01:59:28;;;;;;;53.13;17.70;;;;;;;-141.97;100.00;47928.50;5054468;28;20463;-82
2023/01/24 02:01:57;;;;;;;46.17;17.23;;;;;;;-141.97;100.00;47853.53;5071289;28;20485;-83
2023/01/24 02:04:28;;;;;;;49.97;17.90;;;;;;;-141.97;100.00;47903.50;5071320;28;20781;-83
2023/01/24 02:07:02;;;;;;;47.60;18.17;;;;;;;-141.97;100.00;47907.34;5074458;28;20407;-83
2023/01/24 02:09:40;;;;;;;42.63;16.67;;;;;;;-141.97;100.00;47893.91;5075029;28;20404;-84
2023/01/24 02:12:16;;;;;;;46.57;16.73;;;;;;;-141.97;100.00;47916.97;5075595;28;20410;-83
2023/01/24 02:17:30;;;;;;;45.67;16.53;;;;;;;-141.97;100.00;47909.28;5075088;28;20793;-84
2023/01/24 02:20:09;;;;;;;41.27;16.27;;;;;;;-141.97;100.00;47926.56;5075088;28;20407;-82
2023/01/24 02:23:02;;;;;;;39.97;15.60;;;;;;;-141.97;100.00;47916.97;5056989;28;20409;-83
2023/01/24 02:25:42;;;;;;;40.73;15.37;;;;;;;-141.97;100.00;47895.81;5074900;28;20838;-84
2023/01/24 02:28:08;;;;;;;40.37;15.23;;;;;;;-141.97;100.00;47905.44;5074711;28;20406;-83
2023/01/24 02:30:36;;;;;;;40.93;15.93;;;;;;;-141.97;100.00;47884.28;5074681;28;20407;-82
2023/01/24 02:33:16;;;;;;;41.70;15.33;;;;;;;-141.97;100.00;47918.88;5057206;28;20831;-81
2023/01/24 02:35:42;;;;;;;41.00;15.53;;;;;;;-141.97;100.00;47930.41;5074535;28;20508;-83
2023/01/24 02:38:28;;;;;;;40.77;15.57;;;;;;;-141.97;100.00;47868.91;5074682;28;20821;-82
2023/01/24 02:41:06;;;;;;;41.57;15.00;;;;;;;-141.97;100.00;47911.19;5074639;28;20173;-82
2023/01/24 02:43:36;;;;;;;44.57;15.37;;;;;;;-141.97;100.00;47918.88;5074667;28;20422;-82
2023/01/24 02:46:03;;;;;;;42.83;16.20;;;;;;;-141.97;100.00;47911.19;5074397;28;20391;-82
2023/01/24 02:48:28;;;;;;;40.23;15.27;;;;;;;-141.97;100.00;47868.91;5056154;28;20403;-82
2023/01/24 02:53:39;;;;;;;39.93;15.40;;;;;;;-141.97;100.00;47868.91;5074833;28;20247;-82
2023/01/24 02:58:52;;;;;;;38.77;15.37;;;;;;;-141.97;100.00;47911.19;5090792;28;20428;-82
2023/01/24 03:01:18;;;;;;;39.93;16.53;;;;;;;-141.97;100.00;47959.25;5092298;28;20454;-82
2023/01/24 03:03:44;;;;;;;39.77;16.40;;;;;;;-141.97;100.00;47909.28;5078953;28;20392;-83
2023/01/24 03:06:12;;;;;;;42.50;16.07;;;;;;;-141.97;100.00;47972.72;5075438;28;20398;-83
2023/01/24 03:08:38;;;;;;;41.33;15.93;;;;;;;-141.97;100.00;47884.28;5075365;28;20414;-82
2023/01/24 03:11:04;;;;;;;36.90;15.37;;;;;;;-141.97;100.00;47890.06;5075222;28;20411;-82
2023/01/24 03:35:24;;;;;;;43.40;16.97;;;;;;;-141.97;100.00;47934.25;5054533;28;20458;-83
2023/01/24 03:40:35;;;;;;;40.37;16.67;;;;;;;-141.97;100.00;47907.34;5059564;28;20265;-82
2023/01/24 03:43:01;;;;;;;43.27;16.80;;;;;;;-141.97;100.00;47926.56;5054222;28;20457;-83
2023/01/24 03:45:29;;;;;;;41.50;15.87;;;;;;;-141.97;100.00;47918.88;5053880;28;20462;-83
2023/01/24 03:47:57;;;;;;;43.37;17.23;;;;;;;-141.97;100.00;47918.88;5057170;28;20404;-83
2023/01/24 03:53:13;;;;;;;42.00;16.33;;;;;;;-141.97;100.00;47886.22;5054973;28;20845;-83
2023/01/24 03:55:39;;;;;;;41.40;17.23;;;;;;;-141.97;100.00;47934.25;5053488;28;20459;-83
2023/01/24 03:58:06;;;;;;;40.23;16.47;;;;;;;-141.97;100.00;47918.88;5052069;28;20408;-83
2023/01/24 04:00:32;;;;;;;38.43;16.23;;;;;;;-141.97;100.00;47859.28;5070982;28;20224;-82
2023/01/24 04:02:58;;;;;;;38.40;15.90;;;;;;;-141.97;100.00;47938.09;5055526;28;20986;-82
2023/01/24 04:05:24;;;;;;;40.10;18.33;;;;;;;-141.97;100.00;47999.63;5073265;28;20437;-82
2023/01/24 04:07:49;;;;;;;40.23;17.97;;;;;;;-141.97;100.00;47888.13;5072938;28;20183;-84
2023/01/24 04:10:16;;;;;;;41.43;18.20;;;;;;;-141.97;100.00;47878.53;5087628;28;20188;-82
2023/01/24 04:12:43;;;;;;;46.10;17.93;;;;;;;-141.97;100.00;47932.34;5058583;28;20680;-82
2023/01/24 04:15:13;;;;;;;44.20;18.13;;;;;;;-141.97;100.00;47849.69;5072937;28;20459;-83
2023/01/24 04:17:39;;;;;;;40.43;16.73;;;;;;;-141.97;100.00;47955.41;5073595;28;20399;-82
2023/01/24 04:20:04;;;;;;;43.37;17.03;;;;;;;-141.97;100.00;47928.50;5072774;28;20395;-82
2023/01/24 04:22:30;;;;;;;39.17;16.80;;;;;;;-141.97;100.00;47920.81;5075993;28;20172;-83
2023/01/24 04:24:55;;;;;;;45.10;18.23;;;;;;;-141.97;100.00;47941.94;5074826;28;20180;-83
2023/01/24 04:27:21;;;;;;;42.73;17.07;;;;;;;-141.97;100.00;47845.84;5072848;28;20252;-81
2023/01/24 04:29:46;;;;;;;44.43;16.10;;;;;;;-141.97;100.00;47972.72;5084145;28;20161;-83
2023/01/24 04:32:12;;;;;;;38.57;16.33;;;;;;;-141.97;100.00;47913.13;5091826;28;20164;-82
2023/01/24 04:34:37;;;;;;;35.60;16.07;;;;;;;-141.97;100.00;47951.56;5097224;28;20191;-82
2023/01/24 04:37:02;;;;;;;33.07;15.07;;;;;;;-141.97;100.00;47859.28;5096110;28;20148;-81
2023/01/24 04:39:28;;;;;;;45.67;17.00;;;;;;;-141.97;100.00;47968.88;5094879;28;20164;-82
2023/01/24 04:41:53;;;;;;;38.13;17.60;;;;;;;-141.97;100.00;47845.84;5092882;28;20204;-83
2023/01/24 04:44:19;;;;;;;41.23;17.10;;;;;;;-141.97;100.00;47822.78;5066524;28;20167;-83
2023/01/24 04:46:44;;;;;;;44.87;19.10;;;;;;;-141.97;100.00;47916.97;5085026;28;20559;-82
2023/01/24 04:49:10;;;;;;;44.17;18.63;;;;;;;-141.97;100.00;47943.88;5086967;28;20167;-82
2023/01/24 04:51:35;;;;;;;36.40;16.17;;;;;;;-141.97;100.00;47907.34;5088168;28;20188;-83
2023/01/24 04:54:01;;;;;;;36.80;15.97;;;;;;;-141.97;100.00;47961.19;5070259;28;20165;-83
2023/01/24 04:56:26;;;;;;;32.53;13.63;;;;;;;-141.97;100.00;47872.75;5093234;28;20182;-83
2023/01/24 04:58:52;;;;;;;37.10;17.20;;;;;;;-141.97;100.00;47865.06;5077515;28;20168;-85
2023/01/24 05:01:17;;;;;;;33.90;15.47;;;;;;;-141.97;100.00;47903.50;5094440;28;20216;-84
2023/01/24 05:03:43;;;;;;;34.60;16.33;;;;;;;-141.97;100.00;47876.59;5070864;28;20168;-82
2023/01/24 05:06:08;;;;;;;39.77;17.03;;;;;;;-141.97;100.00;47918.88;5089138;28;20655;-82
2023/01/24 05:08:34;;;;;;;35.87;17.23;;;;;;;-141.97;100.00;47924.66;5066708;28;20172;-82
2023/01/24 05:11:03;;;;;;;32.73;16.00;;;;;;;-141.97;100.00;47922.72;5077010;28;20152;-83
2023/01/24 05:13:28;;;;;;;39.67;19.40;;;;;;;-141.97;100.00;47795.88;5087530;28;20328;-83
2023/01/24 05:15:54;;;;;;;49.60;23.07;;;;;;;-141.97;100.00;47907.34;5087333;28;20813;-83
2023/01/24 05:18:20;;;;;;;53.30;23.53;;;;;;;-141.97;100.00;47899.66;5068156;28;20165;-83
2023/01/24 05:20:45;;;;;;;74.70;31.07;;;;;;;-141.97;100.00;47932.34;5083280;28;20191;-82
2023/01/24 05:23:11;;;;;;;85.10;34.47;;;;;;;-141.97;100.00;47886.22;5084968;28;20161;-82
2023/01/24 05:25:37;;;;;;;51.37;22.87;;;;;;;-141.97;100.00;47845.84;5069272;28;20195;-83
2023/01/24 05:28:02;;;;;;;40.10;17.77;;;;;;;-141.97;100.00;47924.66;5087749;28;20172;-83
2023/01/24 05:30:28;;;;;;;43.17;17.30;;;;;;;-141.97;100.00;47978.47;5079594;28;20160;-83
2023/01/24 05:32:57;;;;;;;45.43;18.27;;;;;;;-141.97;100.00;47899.66;5084059;28;20185;-83
2023/01/24 05:35:23;;;;;;;48.07;20.83;;;;;;;-141.97;100.00;47924.66;5082755;28;20192;-84
2023/01/24 05:37:49;;;;;;;45.67;21.03;;;;;;;-141.97;100.00;47938.09;5072741;28;20399;-84
2023/01/24 05:40:15;;;;;;;37.57;17.73;;;;;;;-141.97;100.00;47961.19;5078130;28;20479;-82
2023/01/24 05:42:42;;;;;;;35.30;17.10;;;;;;;-141.97;100.00;47915.03;5092031;28;20207;-80
2023/01/24 05:45:09;;;;;;;34.73;16.57;;;;;;;-141.97;100.00;47861.22;5073118;28;20159;-83
2023/01/24 05:47:34;;;;;;;35.10;17.27;;;;;;;-141.97;100.00;47897.75;5091391;28;20420;-83
2023/01/24 05:50:00;;;;;;;29.83;15.53;;;;;;;-141.97;100.00;47874.69;5075685;28;20415;-83
2023/01/24 05:52:25;;;;;;;40.53;18.23;;;;;;;-141.97;100.00;47916.97;5062240;28;20644;-83
2023/01/24 05:54:52;;;;;;;32.60;17.27;;;;;;;-141.97;100.00;47884.28;5078931;28;20192;-82
2023/01/24 05:57:18;;;;;;;36.73;18.50;;;;;;;-141.97;100.00;47903.50;5084177;28;20176;-82
2023/01/24 05:59:44;;;;;;;41.10;17.63;;;;;;;-141.97;100.00;47922.72;5079364;28;20496;-83
2023/01/24 06:02:09;;;;;;;52.50;22.67;;;;;;;-141.97;100.00;47853.53;5079117;28;20406;-82
2023/01/24 06:04:35;;;;;;;45.50;20.93;;;;;;;-141.97;100.00;47830.47;5081519;28;20175;-83
2023/01/24 06:07:00;;;;;;;45.63;21.43;;;;;;;-141.97;100.00;47907.34;5086009;28;20164;-82
2023/01/24 06:09:26;;;;;;;44.10;20.27;;;;;;;-141.97;100.00;47893.91;5065975;28;20168;-83
2023/01/24 06:11:52;;;;;;;41.13;18.97;;;;;;;-141.97;100.00;47905.44;5050895;28;20235;-83
2023/01/24 06:14:17;;;;;;;40.03;18.97;;;;;;;-141.97;100.00;47870.81;5069711;28;20279;-83
2023/01/24 06:16:44;;;;;;;42.07;19.83;;;;;;;-141.97;100.00;47924.66;5067824;28;20612;-83
2023/01/24 06:19:11;;;;;;;36.27;18.53;;;;;;;-141.97;100.00;47907.34;5068715;28;20160;-82
2023/01/24 06:22:05;;;;;;;37.27;17.20;;;;;;;-141.97;100.00;47899.66;5068800;28;20436;-84
2023/01/24 06:24:31;;;;;;;42.40;20.70;;;;;;;-141.97;100.00;47922.72;5047743;28;21245;-83
2023/01/24 06:26:57;;;;;;;39.50;20.43;;;;;;;-141.97;100.00;47899.66;5044790;28;20423;-82
2023/01/24 06:29:23;;;;;;;38.87;19.17;;;;;;;-141.97;100.00;47888.13;5036188;28;20423;-82
2023/01/24 06:32:05;;;;;;;41.57;21.83;;;;;;;-141.97;100.00;47916.97;5049922;28;20424;-83
2023/01/24 06:35:07;;;;;;;37.47;18.67;;;;;;;-141.97;100.00;47905.44;5068082;28;20197;-83
2023/01/24 06:37:41;;;;;;;33.77;16.83;;;;;;;-141.97;100.00;47918.88;5064402;28;20419;-83
2023/01/24 06:40:08;;;;;;;34.23;17.10;;;;;;;-141.97;100.00;47926.56;5052231;28;20403;-82
2023/01/24 06:42:34;;;;;;;28.23;14.50;;;;;;;-141.97;100.00;47940.03;5049870;28;20538;-83
2023/01/24 06:45:00;;;;;;;30.03;14.30;;;;;;;-141.97;100.00;47918.88;5035948;28;21045;-82
2023/01/24 06:47:27;;;;;;;31.50;15.63;;;;;;;-141.97;100.00;47903.50;5038994;28;20227;-84
2023/01/24 06:49:53;;;;;;;42.93;21.87;;;;;;;-141.97;100.00;47778.56;5049908;28;20181;-82
2023/01/24 06:52:19;;;;;;;32.87;17.97;;;;;;;-141.97;100.00;47995.78;5048615;28;20420;-83
2023/01/24 06:54:44;;;;;;;31.03;16.47;;;;;;;-141.97;100.00;47920.81;5055221;28;20181;-81
2023/01/24 06:57:10;;;;;;;30.57;16.60;;;;;;;-141.97;100.00;47963.09;5061029;28;20193;-83
2023/01/24 06:59:35;;;;;;;29.37;16.53;;;;;;;-141.97;100.00;47882.38;5036836;28;20220;-84
2023/01/24 07:02:01;;;;;;;33.10;17.43;;;;;;;-141.97;100.00;47934.25;5054141;28;20626;-83
2023/01/24 07:04:26;;;;;;;45.47;21.97;;;;;;;-141.97;100.00;47932.34;5079335;28;20169;-84
2023/01/24 07:06:52;;;;;;;43.90;21.93;;;;;;;-141.97;100.00;47941.94;5062550;28;20177;-82
2023/01/24 07:09:19;;;;;;;40.97;20.70;;;;;;;-141.97;100.00;47903.50;5085130;28;20185;-83
2023/01/24 07:11:47;;;;;;;35.07;18.57;;;;;;;-141.97;100.00;47951.56;5087669;28;20220;-83
2023/01/24 07:14:13;;;;;;;35.03;18.17;;;;;;;-141.97;100.00;47941.94;5079572;28;20414;-82
2023/01/24 07:16:38;;;;;;;33.00;16.90;;;;;;;-141.97;100.00;47990.00;5065931;28;20407;-82
2023/01/24 07:19:04;;;;;;;32.93;15.20;;;;;;;-141.97;100.00;47861.22;5073927;28;20803;-82
2023/01/24 07:21:30;;;;;;;35.57;15.50;;;;;;;-141.97;100.00;47905.44;5083300;28;20164;-82
2023/01/24 07:23:57;;;;;;;25.57;12.97;;;;;;;-141.97;100.00;47930.41;5084925;28;20407;-83
2023/01/24 07:26:23;;;;;;;94.43;38.80;;;;;;;-141.97;100.00;47941.94;5067130;28;20169;-84
2023/01/24 07:28:49;;;;;;;37.90;17.37;;;;;;;-141.97;100.00;47880.44;5088667;28;20419;-85
2023/01/24 07:31:15;;;;;;;29.23;15.53;;;;;;;-141.97;100.00;47838.16;5067831;28;20169;-82
2023/01/24 07:33:41;;;;;;;29.77;14.17;;;;;;;-141.97;100.00;47909.28;5064258;28;20204;-83
2023/01/24 07:36:14;;;;;;;29.30;12.93;;;;;;;-141.97;100.00;47872.75;5068118;28;20461;-82
2023/01/24 07:38:40;;;;;;;28.53;14.53;;;;;;;-141.97;100.00;47886.22;5060012;28;20165;-83
2023/01/24 07:41:09;;;;;;;27.00;14.57;;;;;;;-141.97;100.00;47801.63;5063426;28;20415;-82
2023/01/24 07:43:35;;;;;;;28.90;13.10;;;;;;;-141.97;100.00;47915.03;5074005;28;20457;-82
2023/01/24 07:46:00;;;;;;;25.83;13.53;;;;;;;-141.97;100.00;47928.50;5074075;28;20399;-82
2023/01/24 07:48:25;;;;;;;26.67;15.23;;;;;;;-141.97;100.00;47911.19;5074229;28;20291;-82
2023/01/24 07:50:57;;;;;;;29.43;14.83;;;;;;;-141.97;100.00;47918.88;5076217;28;20244;-81
2023/01/24 07:53:22;;;;;;;28.80;14.67;;;;;;;-141.97;100.00;47897.75;5074843;28;20164;-82
2023/01/24 07:55:47;;;;;;;29.27;13.23;;;;;;;-141.97;100.00;47907.34;5073568;28;20477;-82
2023/01/24 07:58:13;;;;;;;27.83;14.40;;;;;;;-141.97;100.00;47920.81;5073989;28;20233;-82
2023/01/24 08:00:38;;;;;;;27.27;12.93;;;;;;;-141.97;100.00;47922.72;5075469;28;20223;-82
2023/01/24 08:03:03;;;;;;;36.50;16.73;;;;;;;-141.97;100.00;47911.19;5084718;28;20195;-83
2023/01/24 08:05:29;;;;;;;24.37;11.67;;;;;;;-141.97;100.00;47905.44;5095986;28;20169;-83
2023/01/24 08:07:54;;;;;;;24.93;11.70;;;;;;;-141.97;100.00;47941.94;5076412;28;20165;-84
2023/01/24 08:10:21;;;;;;;24.80;12.83;;;;;;;-141.97;100.00;47878.53;5072322;28;20232;-84
2023/01/24 08:12:47;;;;;;;24.47;12.60;;;;;;;-141.97;100.00;47884.28;5073845;28;20264;-84
2023/01/24 08:15:13;;;;;;;26.47;12.33;;;;;;;-141.97;100.00;47936.19;5056112;28;20457;-84
2023/01/24 08:17:39;;;;;;;24.97;11.00;;;;;;;-141.97;100.00;47938.09;5076738;28;20471;-83
2023/01/24 08:20:08;;;;;;;25.07;11.40;;;;;;;-141.97;100.00;47932.34;5094796;28;20200;-84
2023/01/24 08:22:33;;;;;;;47.47;18.77;;;;;;;-141.97;100.00;47936.19;5083127;28;20917;-83
2023/01/24 08:24:59;;;;;;;101.10;33.87;;;;;;;-141.97;100.00;47901.59;5073209;28;20407;-84
2023/01/24 08:27:24;;;;;;;84.10;27.17;;;;;;;-141.97;100.00;48003.47;5073652;28;20179;-83
2023/01/24 08:29:50;;;;;;;716.27;217.63;;;;;;;-141.97;100.00;47951.56;5073772;28;20160;-83
2023/01/24 08:32:15;;;;;;;151.00;38.87;;;;;;;-141.97;100.00;47965.03;5073476;28;20168;-83
2023/01/24 08:34:41;;;;;;;551.93;158.13;;;;;;;-141.97;100.00;47991.94;5073581;28;20287;-84
2023/01/24 08:37:06;;;;;;;513.10;184.73;;;;;;;-141.97;100.00;47916.97;5073505;28;20705;-83
2023/01/24 08:39:32;;;;;;;240.47;74.87;;;;;;;-141.97;100.00;47849.69;5055438;28;20179;-83
2023/01/24 08:41:57;;;;;;;535.90;216.53;;;;;;;-141.97;100.00;47793.94;5073316;28;20211;-83
2023/01/24 08:44:22;;;;;;;103.77;45.77;;;;;;;-141.97;100.00;47941.94;5073478;28;20224;-84
2023/01/24 08:46:48;;;;;;;31.77;14.50;;;;;;;-141.97;100.00;47853.53;5074559;28;20544;-84
2023/01/24 08:49:13;;;;;;;307.67;98.80;;;;;;;-141.97;100.00;47953.50;5072869;28;20168;-84
2023/01/24 08:51:39;;;;;;;25.80;11.87;;;;;;;-141.97;100.00;47882.38;5072645;28;20173;-84
2023/01/24 08:54:06;;;;;;;30.30;13.70;;;;;;;-141.97;100.00;47941.94;5072366;28;20177;-84
2023/01/24 08:56:31;;;;;;;34.67;15.83;;;;;;;-141.97;100.00;47940.03;5072595;28;20168;-84
2023/01/24 08:58:56;;;;;;;26.73;11.70;;;;;;;-141.97;100.00;48007.31;5072625;28;20775;-83
2023/01/24 09:01:22;;;;;;;25.53;11.03;;;;;;;-141.97;100.00;47955.41;5034181;28;20636;-86
2023/01/24 09:03:48;;;;;;;22.23;11.30;;;;;;;-141.97;100.00;47911.19;5034908;28;20199;-86
2023/01/24 09:06:14;;;;;;;21.90;10.07;;;;;;;-141.97;100.00;47876.59;5043650;28;20170;-85
2023/01/24 09:08:40;;;;;;;21.33;9.90;;;;;;;-141.97;100.00;47872.75;5047382;28;20417;-86
2023/01/24 09:11:05;;;;;;;24.57;10.50;;;;;;;-141.97;100.00;47907.34;5045950;28;20328;-87
2023/01/24 09:13:31;;;;;;;21.17;9.70;;;;;;;-141.97;100.00;47863.13;5051988;28;20201;-86
2023/01/24 09:15:58;;;;;;;21.43;9.60;;;;;;;-141.97;100.00;47903.50;5055154;28;20194;-86
2023/01/24 09:18:23;;;;;;;22.00;9.03;;;;;;;-141.97;100.00;47891.97;5056377;28;20161;-86
2023/01/24 09:20:48;;;;;;;20.37;9.27;;;;;;;-141.97;100.00;47905.44;5053233;28;20443;-83
2023/01/24 09:23:14;;;;;;;24.07;9.80;;;;;;;-141.97;100.00;47922.72;5043442;28;20526;-83
2023/01/24 09:25:41;;;;;;;21.80;9.83;;;;;;;-141.97;100.00;47882.38;5041692;28;20212;-83
2023/01/24 09:28:07;;;;;;;23.17;10.37;;;;;;;-141.97;100.00;47911.19;5039983;28;20220;-83
2023/01/24 09:30:34;;;;;;;26.77;14.53;;;;;;;-141.97;100.00;47884.28;5046420;28;20409;-83
2023/01/24 09:33:04;;;;;;;23.97;13.43;;;;;;;-141.97;100.00;47907.34;5049703;28;20177;-83
2023/01/24 09:35:29;;;;;;;27.20;14.43;;;;;;;-141.97;100.00;47767.03;5054664;28;20475;-84
2023/01/24 09:37:54;;;;;;;26.67;13.50;;;;;;;-141.97;100.00;47891.97;5055951;28;20452;-84
2023/01/24 09:40:26;;;;;;;31.53;15.80;;;;;;;-141.97;100.00;47920.81;5043278;28;20178;-83
2023/01/24 09:43:18;;;;;;;21.93;12.13;;;;;;;-141.97;100.00;47938.09;5034406;28;20181;-83
2023/01/24 09:46:04;;;;;;;27.70;14.43;;;;;;;-141.97;100.00;47907.34;4972620;28;20435;-84
2023/01/24 09:48:32;;;;;;;429.27;84.50;;;;;;;-141.97;100.00;47913.13;4990770;28;20532;-85
2023/01/24 09:51:04;;;;;;;997.27;202.23;;;;;;;-141.97;100.00;47936.19;4992175;28;20846;-84
2023/01/24 09:53:43;;;;;;;1816.77;371.00;;;;;;;-141.97;100.00;47901.59;4983966;28;20467;-84
2023/01/24 09:56:26;;;;;;;116.33;20.43;;;;;;;-141.97;100.00;47934.25;4976533;28;20518;-84
2023/01/24 09:59:11;;;;;;;381.33;82.93;;;;;;;-141.97;100.00;47922.72;4956191;28;20415;-84
2023/01/24 10:01:41;;;;;;;43.53;18.73;;;;;;;-141.97;100.00;47855.44;4970931;28;21090;-84
2023/01/24 10:04:18;;;;;;;83.67;43.40;;;;;;;-141.97;100.00;47899.66;4971010;28;21157;-85
2023/01/24 10:07:01;;;;;;;27.57;15.03;;;;;;;-141.97;100.00;47918.88;4970952;28;20970;-84
2023/01/24 10:09:31;;;;;;;22.87;10.80;;;;;;;-141.97;100.00;47991.94;4971110;28;21122;-84
2023/01/24 10:12:45;;;;;;;17.23;8.80;;;;;;;-141.97;100.00;47880.44;4961425;28;21086;-84
2023/01/24 10:15:36;;;;;;;53.03;22.23;;;;;;;-141.97;100.00;47922.72;4876805;29;20534;-85
2023/01/24 10:18:30;;;;;;;65.07;25.43;;;;;;;-141.97;100.00;47930.41;4806158;29;20443;-84
2023/01/24 10:21:08;;;;;;;37.43;17.03;;;;;;;-141.97;100.00;47893.91;4821283;29;20442;-85
2023/01/24 10:23:39;;;;;;;35.10;19.13;;;;;;;-141.97;100.00;47880.44;4868261;29;20455;-84
2023/01/24 10:26:18;;;;;;;27.43;13.97;;;;;;;-141.97;100.00;47932.34;4875215;29;20432;-84
2023/01/24 10:28:48;;;;;;;19.57;10.00;;;;;;;-141.97;100.00;47903.50;4879404;29;20515;-84
2023/01/24 10:31:20;;;;;;;45.63;24.77;;;;;;;-141.97;100.00;47888.13;4879088;29;21116;-85
2023/01/24 10:33:48;;;;;;;18.67;9.80;;;;;;;-141.97;100.00;47851.59;4879140;29;20447;-84
2023/01/24 10:36:33;;;;;;;16.37;7.97;;;;;;;-141.97;100.00;47907.34;4878976;29;21050;-84
2023/01/24 10:38:58;;;;;;;20.10;11.13;;;;;;;-141.97;100.00;47865.06;4879256;29;20428;-84
2023/01/24 10:41:26;;;;;;;22.00;10.60;;;;;;;-141.97;100.00;47984.25;4879708;29;20479;-85
2023/01/24 10:44:18;;;;;;;38.70;17.10;;;;;;;-141.97;100.00;47886.22;4871057;29;20179;-84
2023/01/24 10:47:21;;;;;;;12.50;6.60;;;;;;;-141.97;100.00;47893.91;4842018;29;20445;-84
2023/01/24 10:49:58;;;;;;;18.07;8.83;;;;;;;-141.97;100.00;47899.66;4842339;29;20500;-84
2023/01/24 10:52:23;;;;;;;14.00;7.63;;;;;;;-141.97;100.00;47907.34;4879209;29;21046;-84
2023/01/24 10:54:53;;;;;;;17.13;8.83;;;;;;;-141.97;100.00;47930.41;4939910;28;20455;-84
2023/01/24 10:57:37;;;;;;;14.27;7.40;;;;;;;-141.97;100.00;47922.72;4971706;29;20227;-84
2023/01/24 11:00:25;;;;;;;20.03;10.70;;;;;;;-141.97;100.00;47861.22;4968796;28;20481;-85
2023/01/24 11:02:53;;;;;;;17.47;8.73;;;;;;;-141.97;100.00;47897.75;4994830;28;20422;-84
2023/01/24 11:05:20;;;;;;;20.27;10.50;;;;;;;-141.97;100.00;47911.19;4993403;28;20430;-84
2023/01/24 11:08:15;;;;;;;72.00;31.80;;;;;;;-141.97;100.00;47963.09;4994369;28;20437;-83
2023/01/24 11:10:41;;;;;;;13.63;6.93;;;;;;;-141.97;100.00;47961.19;4993358;28;20430;-84
2023/01/24 11:13:18;;;;;;;12.67;7.00;;;;;;;-141.97;100.00;47872.75;4982578;28;20803;-84
2023/01/24 11:15:50;;;;;;;10.87;6.03;;;;;;;-141.97;100.00;47895.81;4993147;28;21013;-83
2023/01/24 11:18:23;;;;;;;14.50;7.07;;;;;;;-141.97;100.00;47899.66;4993283;28;20769;-84
2023/01/24 11:21:11;;;;;;;13.53;7.60;;;;;;;-141.97;100.00;47936.19;4993953;28;20417;-84
2023/01/24 11:23:37;;;;;;;15.33;7.43;;;;;;;-141.97;100.00;47930.41;5032075;28;20423;-83
2023/01/24 11:26:04;;;;;;;13.87;7.77;;;;;;;-141.97;100.00;47961.19;5074094;28;20448;-84
2023/01/24 11:28:36;;;;;;;13.87;7.73;;;;;;;-141.97;100.00;47913.13;5074116;28;20547;-83
2023/01/24 11:31:06;;;;;;;13.07;7.00;;;;;;;-141.97;100.00;47980.41;5074019;28;20406;-83
2023/01/24 11:34:01;;;;;;;12.47;6.97;;;;;;;-141.97;100.00;47913.13;5074821;28;20752;-83
2023/01/24 11:37:13;;;;;;;17.97;8.10;;;;;;;-141.97;100.00;47872.75;5073833;28;20188;-83
2023/01/24 11:39:48;;;;;;;13.73;7.50;;;;;;;-141.97;100.00;47907.34;5072793;28;20197;-83
2023/01/24 11:42:49;;;;;;;16.03;8.43;;;;;;;-141.97;100.00;47922.72;5074004;28;20411;-83